Time;durP1;ratioP1;P1;durP2;ratioP2;P2;SDS_P1;SDS_P2;PMS_P1;PMS_P2;Temp;Humidity;BMP_temperature;BMP_pressure;BME280_temperature;BME280_humidity;BME280_pressure;Samples;Min_cycle;Max_cycle;Signal;HPM_P1;HPM_P2
2023/11/05 00:00:31;;;;;;;1.70;1.00;;;7.80;99.90;;;;;;4932846;28;20033;-80
2023/11/05 00:02:57;;;;;;;1.08;0.95;;;7.80;99.90;;;;;;4924561;28;20450;-79
2023/11/05 00:05:22;;;;;;;1.63;1.20;;;7.80;99.90;;;;;;4927436;28;20041;-80
2023/11/05 00:07:48;;;;;;;1.50;0.90;;;7.80;99.90;;;;;;4923156;28;20510;-79
2023/11/05 00:10:13;;;;;;;1.10;0.75;;;7.80;99.90;;;;;;4985323;28;20445;-81
2023/11/05 00:12:39;;;;;;;1.48;1.15;;;7.80;99.90;;;;;;4926176;28;20097;-80
2023/11/05 00:15:05;;;;;;;0.95;0.68;;;7.80;99.90;;;;;;4917464;28;20021;-80
2023/11/05 00:17:33;;;;;;;0.93;0.70;;;7.80;99.90;;;;;;4950550;28;20216;-80
2023/11/05 00:19:58;;;;;;;1.00;0.77;;;7.80;99.90;;;;;;4950323;28;20081;-80
2023/11/05 00:22:27;;;;;;;0.98;0.93;;;7.70;99.90;;;;;;4947536;28;20018;-82
2023/11/05 00:24:52;;;;;;;1.63;1.20;;;7.80;99.90;;;;;;4980560;28;20022;-81
2023/11/05 00:27:18;;;;;;;1.20;1.10;;;7.80;99.90;;;;;;4959704;28;20033;-80
2023/11/05 00:29:43;;;;;;;1.80;1.08;;;7.80;99.90;;;;;;4946308;28;20030;-80
2023/11/05 00:32:11;;;;;;;2.40;0.98;;;7.80;99.90;;;;;;4933120;28;20014;-80
2023/11/05 00:34:37;;;;;;;0.90;0.80;;;7.80;99.90;;;;;;4955852;28;20469;-80
2023/11/05 00:37:02;;;;;;;2.05;1.08;;;7.70;99.90;;;;;;4977624;28;20026;-80
2023/11/05 00:39:28;;;;;;;3.40;1.25;;;7.80;99.90;;;;;;4921359;28;20458;-80
2023/11/05 00:41:53;;;;;;;1.45;1.13;;;7.70;99.90;;;;;;4929430;28;20023;-81
2023/11/05 00:44:19;;;;;;;1.17;1.02;;;7.70;99.90;;;;;;4950070;28;20018;-81
2023/11/05 00:46:44;;;;;;;1.08;0.90;;;7.80;99.90;;;;;;4916726;28;22289;-81
2023/11/05 00:49:10;;;;;;;1.17;1.00;;;7.80;99.90;;;;;;4980088;28;20017;-81
2023/11/05 00:51:36;;;;;;;0.90;0.80;;;7.80;99.90;;;;;;4930238;28;20458;-80
2023/11/05 00:54:01;;;;;;;1.20;0.90;;;7.80;99.90;;;;;;4952270;28;20077;-80
2023/11/05 00:56:27;;;;;;;1.10;1.00;;;7.80;99.90;;;;;;4946328;28;20744;-81
2023/11/05 00:58:52;;;;;;;1.38;0.95;;;7.80;99.90;;;;;;4923789;28;20415;-81
2023/11/05 01:01:21;;;;;;;1.88;0.95;;;7.70;99.90;;;;;;4986993;28;20535;-81
2023/11/05 01:03:46;;;;;;;2.22;0.90;;;7.70;99.90;;;;;;4957588;28;20050;-80
2023/11/05 01:06:12;;;;;;;0.95;0.95;;;7.70;99.90;;;;;;4895624;28;21048;-80
2023/11/05 01:08:38;;;;;;;1.25;0.95;;;7.70;99.90;;;;;;4945428;28;20640;-81
2023/11/05 01:11:03;;;;;;;1.20;1.10;;;7.70;99.90;;;;;;4913871;28;20027;-80
2023/11/05 01:13:32;;;;;;;1.13;0.98;;;7.70;99.90;;;;;;4948080;28;20037;-82
2023/11/05 01:15:58;;;;;;;0.82;0.80;;;7.70;99.90;;;;;;4928505;28;1328727;-82
2023/11/05 01:18:23;;;;;;;1.75;1.10;;;7.70;99.90;;;;;;4947719;28;20034;-81
2023/11/05 01:20:49;;;;;;;1.38;1.00;;;7.70;99.90;;;;;;4907109;28;20030;-81
2023/11/05 01:23:15;;;;;;;1.38;1.20;;;7.70;99.90;;;;;;4925814;28;20030;-82
2023/11/05 01:25:41;;;;;;;1.20;1.10;;;7.70;99.90;;;;;;4937144;28;20042;-81
2023/11/05 01:28:06;;;;;;;2.08;0.95;;;7.70;99.90;;;;;;4972847;28;20038;-81
2023/11/05 01:30:32;;;;;;;0.88;0.80;;;7.70;99.90;;;;;;4954539;28;20035;-81
2023/11/05 01:32:57;;;;;;;1.58;0.93;;;7.60;99.90;;;;;;4936652;28;20042;-81
2023/11/05 01:35:23;;;;;;;1.33;0.95;;;7.60;99.90;;;;;;4949007;28;20052;-80
2023/11/05 01:37:49;;;;;;;0.93;0.82;;;7.60;99.90;;;;;;4944875;28;20495;-81
2023/11/05 01:40:15;;;;;;;1.88;0.95;;;7.60;99.90;;;;;;4982827;28;20033;-80
2023/11/05 01:42:40;;;;;;;1.80;1.35;;;7.60;99.90;;;;;;4920550;28;20022;-81
2023/11/05 01:45:06;;;;;;;1.10;0.90;;;7.70;99.90;;;;;;4916236;28;20545;-80
2023/11/05 01:47:32;;;;;;;1.05;0.73;;;7.60;99.90;;;;;;4944756;28;20168;-82
2023/11/05 01:49:58;;;;;;;1.33;0.90;;;7.60;99.90;;;;;;4937365;28;21428;-81
2023/11/05 01:52:37;;;;;;;0.95;0.93;;;7.60;99.90;;;;;;4928794;28;20086;-81
2023/11/05 01:55:06;;;;;;;1.20;1.10;;;7.70;99.90;;;;;;4966887;28;20035;-81
2023/11/05 01:57:32;;;;;;;2.42;0.90;;;7.70;99.90;;;;;;4953422;28;20497;-81
2023/11/05 01:59:58;;;;;;;1.33;1.13;;;7.70;99.90;;;;;;4909063;28;20042;-81
2023/11/05 02:02:24;;;;;;;1.52;1.00;;;7.60;99.90;;;;;;4938400;28;20029;-81
2023/11/05 02:04:50;;;;;;;1.60;0.90;;;7.70;99.90;;;;;;4894997;28;20509;-82
2023/11/05 02:07:16;;;;;;;0.93;0.73;;;7.70;99.90;;;;;;4998270;28;20029;-82
2023/11/05 02:09:42;;;;;;;0.80;0.80;;;7.70;99.90;;;;;;4978844;28;20023;-81
2023/11/05 02:12:08;;;;;;;3.47;0.95;;;7.70;99.90;;;;;;4916830;28;20089;-82
2023/11/05 02:14:33;;;;;;;1.67;1.00;;;7.70;99.90;;;;;;4925367;28;20057;-81
2023/11/05 02:16:59;;;;;;;1.17;0.88;;;7.70;99.90;;;;;;4974156;28;20034;-82
2023/11/05 02:19:37;;;;;;;1.70;1.15;;;7.70;99.90;;;;;;4925879;28;20108;-82
2023/11/05 02:22:11;;;;;;;3.10;1.23;;;7.70;99.90;;;;;;4952263;28;20018;-81
2023/11/05 02:24:37;;;;;;;1.65;0.90;;;7.70;99.90;;;;;;4883174;28;20033;-82
2023/11/05 02:27:03;;;;;;;1.20;0.95;;;7.70;99.90;;;;;;4924608;28;20069;-83
2023/11/05 02:29:28;;;;;;;1.15;0.90;;;7.70;99.90;;;;;;4888214;28;20184;-83
2023/11/05 02:31:54;;;;;;;1.17;1.00;;;7.70;99.90;;;;;;4970057;28;20105;-83
2023/11/05 02:34:20;;;;;;;1.10;0.93;;;7.70;99.90;;;;;;4991999;28;20030;-82
2023/11/05 02:36:46;;;;;;;2.67;0.90;;;7.80;99.90;;;;;;4888819;28;20033;-82
2023/11/05 02:39:12;;;;;;;1.52;0.82;;;7.80;99.90;;;;;;4947649;28;20058;-82
2023/11/05 02:41:38;;;;;;;1.35;0.80;;;7.80;99.90;;;;;;4955915;28;20128;-83
2023/11/05 02:44:04;;;;;;;1.20;1.00;;;7.80;99.90;;;;;;4958189;28;20014;-81
2023/11/05 02:46:42;;;;;;;0.82;0.70;;;7.80;99.90;;;;;;4903448;28;20029;-82
2023/11/05 02:49:09;;;;;;;0.90;0.75;;;7.80;99.90;;;;;;4973922;28;20033;-81
2023/11/05 02:51:35;;;;;;;1.40;1.05;;;7.80;99.90;;;;;;4919347;28;20033;-82
2023/11/05 02:54:01;;;;;;;2.30;1.20;;;7.80;99.90;;;;;;4909382;28;20038;-81
2023/11/05 02:56:27;;;;;;;1.15;1.05;;;7.80;99.90;;;;;;4961053;28;20509;-81
2023/11/05 02:58:53;;;;;;;2.60;1.20;;;7.80;99.90;;;;;;4955723;28;20027;-82
2023/11/05 03:01:38;;;;;;;1.92;1.00;;;7.80;99.90;;;;;;4980750;28;20045;-81
2023/11/05 03:04:03;;;;;;;1.42;0.95;;;7.80;99.90;;;;;;4923090;28;20026;-81
2023/11/05 03:06:29;;;;;;;1.58;1.30;;;7.80;99.90;;;;;;4948592;28;20029;-81
2023/11/05 03:08:55;;;;;;;1.25;1.10;;;7.80;99.90;;;;;;4964656;28;20029;-81
2023/11/05 03:11:20;;;;;;;1.23;1.10;;;7.80;99.90;;;;;;4929518;28;20536;-82
2023/11/05 03:13:46;;;;;;;4.15;1.00;;;7.80;99.90;;;;;;4931602;28;21851;-81
2023/11/05 03:16:12;;;;;;;1.20;1.10;;;7.80;99.90;;;;;;4976911;28;20026;-81
2023/11/05 03:18:39;;;;;;;1.00;0.90;;;7.80;99.90;;;;;;4963598;28;20022;-81
2023/11/05 03:21:05;;;;;;;1.42;0.90;;;7.70;99.90;;;;;;4922828;28;20038;-81
2023/11/05 03:23:30;;;;;;;2.25;1.13;;;7.80;99.90;;;;;;4932431;28;20018;-82
2023/11/05 03:25:56;;;;;;;1.38;1.20;;;7.80;99.90;;;;;;4962254;28;20022;-82
2023/11/05 03:28:21;;;;;;;1.20;1.10;;;7.80;99.90;;;;;;4942501;28;20108;-80
2023/11/05 03:30:47;;;;;;;1.38;0.80;;;7.70;99.90;;;;;;4927125;28;20264;-82
2023/11/05 03:33:13;;;;;;;1.52;1.02;;;7.70;99.90;;;;;;4929172;28;20133;-81
2023/11/05 03:35:38;;;;;;;0.75;0.75;;;7.70;99.90;;;;;;4937835;28;21441;-81
2023/11/05 03:38:04;;;;;;;1.08;0.98;;;7.70;99.90;;;;;;4971321;28;20038;-81
2023/11/05 03:40:29;;;;;;;1.10;1.00;;;7.70;99.90;;;;;;4927366;28;20018;-82
2023/11/05 03:42:55;;;;;;;1.42;1.17;;;7.70;99.90;;;;;;4925811;28;20056;-81
2023/11/05 03:45:21;;;;;;;1.48;0.93;;;7.70;99.90;;;;;;4936385;28;20128;-81
2023/11/05 03:47:46;;;;;;;1.30;1.10;;;7.70;99.90;;;;;;4907947;28;21569;-81
2023/11/05 03:50:12;;;;;;;0.90;0.90;;;7.80;99.90;;;;;;4977265;28;20039;-82
2023/11/05 03:52:38;;;;;;;0.93;0.60;;;7.80;99.90;;;;;;4920319;28;20099;-82
2023/11/05 03:55:03;;;;;;;1.75;0.95;;;7.80;99.90;;;;;;4951227;28;20129;-81
2023/11/05 03:57:29;;;;;;;1.58;1.10;;;7.80;99.90;;;;;;4941934;28;20561;-81
2023/11/05 03:59:55;;;;;;;4.03;1.20;;;7.80;99.90;;;;;;4924699;28;20507;-81
2023/11/05 04:02:44;;;;;;;2.08;1.10;;;7.80;99.90;;;;;;4943126;28;20423;-82
2023/11/05 04:05:09;;;;;;;2.78;0.85;;;7.80;99.90;;;;;;4962218;28;20034;-81
2023/11/05 04:07:35;;;;;;;1.17;0.85;;;7.80;99.90;;;;;;4935203;28;20033;-81
2023/11/05 04:10:00;;;;;;;1.00;0.90;;;7.80;99.90;;;;;;4943165;28;20024;-81
2023/11/05 04:12:26;;;;;;;0.93;0.70;;;7.90;99.90;;;;;;4952170;28;21710;-81
2023/11/05 04:14:51;;;;;;;2.75;1.42;;;7.80;99.90;;;;;;4952193;28;20394;-82
2023/11/05 04:17:17;;;;;;;1.33;1.02;;;7.80;99.90;;;;;;4982059;28;20065;-81
2023/11/05 04:19:42;;;;;;;1.52;1.20;;;7.80;99.90;;;;;;4942038;28;20038;-81
2023/11/05 04:22:08;;;;;;;2.55;1.20;;;7.80;99.90;;;;;;4906091;28;20041;-81
2023/11/05 04:24:33;;;;;;;1.83;1.13;;;7.80;99.90;;;;;;4953185;28;20022;-81
2023/11/05 04:26:59;;;;;;;1.95;1.27;;;7.80;99.90;;;;;;4947689;28;20023;-81
2023/11/05 04:29:33;;;;;;;1.42;0.90;;;7.80;99.90;;;;;;4938830;28;20026;-82
2023/11/05 04:31:59;;;;;;;0.75;0.68;;;7.90;99.90;;;;;;4972523;28;20039;-81
2023/11/05 04:34:27;;;;;;;2.17;0.98;;;7.80;99.90;;;;;;4927698;28;20022;-82
2023/11/05 04:36:53;;;;;;;1.17;0.90;;;7.80;99.90;;;;;;4958880;28;20034;-82
2023/11/05 04:39:18;;;;;;;0.85;0.82;;;7.80;99.90;;;;;;4925847;28;20386;-81
2023/11/05 04:41:44;;;;;;;1.00;0.90;;;7.90;99.90;;;;;;4951815;28;20061;-82
2023/11/05 04:44:09;;;;;;;1.63;0.95;;;7.90;99.90;;;;;;4962880;28;20027;-82
2023/11/05 04:46:41;;;;;;;1.35;1.25;;;7.90;99.90;;;;;;4926472;28;20030;-81
2023/11/05 04:49:06;;;;;;;2.08;1.10;;;7.90;99.90;;;;;;4912934;28;20030;-82
2023/11/05 04:51:35;;;;;;;1.77;1.10;;;7.90;99.90;;;;;;4931691;28;20066;-82
2023/11/05 04:54:01;;;;;;;1.02;0.90;;;7.90;99.90;;;;;;4943936;28;20027;-81
2023/11/05 04:56:36;;;;;;;1.50;0.90;;;7.80;99.90;;;;;;4954232;28;20056;-81
2023/11/05 04:59:02;;;;;;;1.33;0.88;;;7.90;99.90;;;;;;4981444;28;20533;-81
2023/11/05 05:01:27;;;;;;;1.60;0.70;;;7.90;99.90;;;;;;4944313;28;20029;-81
2023/11/05 05:03:53;;;;;;;1.35;0.90;;;7.90;99.90;;;;;;4961010;28;20014;-81
2023/11/05 05:06:19;;;;;;;0.90;0.75;;;7.90;99.90;;;;;;4931507;28;20026;-82
2023/11/05 05:08:47;;;;;;;5.20;1.42;;;7.90;99.90;;;;;;4913197;28;22106;-81
2023/11/05 05:11:13;;;;;;;1.40;0.95;;;7.90;99.90;;;;;;4981614;28;20086;-82
2023/11/05 05:13:39;;;;;;;2.45;1.00;;;7.90;99.90;;;;;;4958976;28;20026;-81
2023/11/05 05:16:08;;;;;;;0.80;0.80;;;7.90;99.90;;;;;;4981302;28;20053;-82
2023/11/05 05:18:33;;;;;;;3.28;1.00;;;7.90;99.90;;;;;;4957025;28;20029;-82
2023/11/05 05:21:00;;;;;;;1.52;0.80;;;7.90;99.90;;;;;;4961095;28;20032;-82
2023/11/05 05:23:31;;;;;;;2.20;0.75;;;7.90;99.90;;;;;;4965337;28;20056;-81
2023/11/05 05:25:57;;;;;;;1.15;1.00;;;7.90;99.90;;;;;;4978074;28;20124;-82
2023/11/05 05:28:22;;;;;;;0.95;0.80;;;7.90;99.90;;;;;;4957513;28;20169;-82
2023/11/05 05:30:48;;;;;;;3.58;1.13;;;7.90;99.90;;;;;;4951832;28;20050;-82
2023/11/05 05:33:14;;;;;;;2.03;1.05;;;7.90;99.90;;;;;;4944171;28;20022;-82
2023/11/05 05:35:40;;;;;;;1.20;1.10;;;7.90;99.90;;;;;;4938466;28;20037;-83
2023/11/05 05:38:05;;;;;;;2.30;1.25;;;7.90;99.90;;;;;;4969616;28;20029;-82
2023/11/05 05:40:31;;;;;;;2.13;0.85;;;7.90;99.90;;;;;;4947892;28;20094;-82
2023/11/05 05:42:57;;;;;;;1.38;1.02;;;7.90;99.90;;;;;;4945752;28;20023;-82
2023/11/05 05:45:23;;;;;;;1.27;0.90;;;7.90;99.90;;;;;;4930007;28;20026;-82
2023/11/05 05:47:48;;;;;;;2.80;1.00;;;7.90;99.90;;;;;;4964079;28;20708;-82
2023/11/05 05:50:14;;;;;;;2.00;0.85;;;7.90;99.90;;;;;;4972987;28;20034;-82
2023/11/05 05:52:39;;;;;;;1.58;0.70;;;7.90;99.90;;;;;;4935546;28;20026;-82
2023/11/05 05:55:09;;;;;;;0.77;0.77;;;7.90;99.90;;;;;;4949627;28;20058;-81
2023/11/05 05:57:35;;;;;;;3.47;0.80;;;7.90;99.90;;;;;;4949521;28;20030;-82
2023/11/05 06:00:05;;;;;;;1.30;0.88;;;7.90;99.90;;;;;;4966136;28;20034;-81
2023/11/05 06:02:39;;;;;;;1.10;0.77;;;8.00;99.90;;;;;;4928958;28;20030;-82
2023/11/05 06:05:08;;;;;;;1.10;1.00;;;7.90;99.90;;;;;;4956731;28;20104;-81
2023/11/05 06:07:36;;;;;;;1.80;1.23;;;8.00;99.90;;;;;;4935330;28;20031;-82
2023/11/05 06:10:02;;;;;;;0.80;0.80;;;7.90;99.90;;;;;;4944113;28;20041;-80
2023/11/05 06:12:28;;;;;;;1.83;0.90;;;7.90;99.90;;;;;;4935438;28;20541;-81
2023/11/05 06:14:54;;;;;;;2.00;0.98;;;7.90;99.90;;;;;;4942399;28;20643;-82
2023/11/05 06:17:19;;;;;;;1.38;1.17;;;7.90;99.90;;;;;;4951905;28;20034;-81
2023/11/05 06:19:45;;;;;;;3.42;0.80;;;7.90;99.90;;;;;;4932114;28;20037;-82
2023/11/05 06:22:11;;;;;;;2.70;1.02;;;7.90;99.90;;;;;;4922617;28;20113;-81
2023/11/05 06:24:39;;;;;;;0.90;0.73;;;7.90;99.90;;;;;;4962345;28;20034;-80
2023/11/05 06:27:04;;;;;;;1.42;1.00;;;7.90;99.90;;;;;;4960171;28;20379;-81
2023/11/05 06:29:41;;;;;;;3.20;1.20;;;7.90;99.90;;;;;;4975130;28;20137;-81
2023/11/05 06:32:07;;;;;;;1.17;0.80;;;7.90;99.90;;;;;;4952841;28;20174;-81
2023/11/05 06:34:32;;;;;;;3.47;1.00;;;8.00;99.90;;;;;;4906686;28;20482;-82
2023/11/05 06:37:00;;;;;;;0.63;0.60;;;8.00;99.90;;;;;;4970213;28;20356;-80
2023/11/05 06:39:28;;;;;;;1.40;0.90;;;8.00;99.90;;;;;;4972022;28;20062;-81
2023/11/05 06:41:55;;;;;;;1.48;0.80;;;8.00;99.90;;;;;;4983489;28;20164;-82
2023/11/05 06:44:20;;;;;;;2.75;0.90;;;8.00;99.90;;;;;;4954639;28;20487;-80
2023/11/05 06:46:46;;;;;;;1.02;0.95;;;8.00;99.90;;;;;;4952274;28;20123;-81
2023/11/05 06:49:12;;;;;;;2.25;1.30;;;8.00;99.90;;;;;;4946245;28;20033;-81
2023/11/05 06:51:37;;;;;;;1.52;1.00;;;8.00;99.90;;;;;;4961379;28;20034;-81
2023/11/05 06:54:03;;;;;;;0.82;0.82;;;8.00;99.90;;;;;;4984402;28;20068;-81
2023/11/05 06:56:28;;;;;;;1.67;0.70;;;8.00;99.90;;;;;;4946370;28;20049;-81
2023/11/05 06:58:54;;;;;;;5.35;1.33;;;8.00;99.90;;;;;;4939712;28;20019;-81
2023/11/05 07:01:20;;;;;;;0.80;0.70;;;8.00;99.90;;;;;;4941610;28;20086;-81
2023/11/05 07:03:46;;;;;;;3.42;1.17;;;8.10;99.90;;;;;;4958218;28;20882;-81
2023/11/05 07:06:15;;;;;;;2.72;0.80;;;8.10;99.90;;;;;;4979235;28;20022;-81
2023/11/05 07:08:42;;;;;;;1.50;1.02;;;8.10;99.90;;;;;;4942807;28;20014;-81
2023/11/05 07:11:08;;;;;;;0.80;0.80;;;8.10;99.90;;;;;;4931531;28;20037;-82
2023/11/05 07:13:34;;;;;;;3.63;1.35;;;8.10;99.90;;;;;;4959722;28;20097;-82
2023/11/05 07:16:00;;;;;;;1.13;1.02;;;8.10;99.90;;;;;;4935021;28;20094;-82
2023/11/05 07:18:35;;;;;;;2.42;1.00;;;8.10;99.90;;;;;;4945536;28;20115;-82
2023/11/05 07:21:01;;;;;;;3.67;1.38;;;8.10;99.90;;;;;;4963635;28;20346;-81
2023/11/05 07:23:26;;;;;;;1.88;1.48;;;8.10;99.90;;;;;;4957129;28;20026;-81
2023/11/05 07:25:52;;;;;;;2.10;1.73;;;8.10;99.90;;;;;;4945827;28;20022;-82
2023/11/05 07:28:17;;;;;;;4.68;1.70;;;8.10;99.90;;;;;;4971347;28;20023;-81
2023/11/05 07:30:43;;;;;;;4.80;2.92;;;8.20;99.90;;;;;;4932796;28;21593;-82
2023/11/05 07:33:12;;;;;;;1.95;1.65;;;8.20;99.90;;;;;;4980949;28;20022;-81
2023/11/05 07:35:37;;;;;;;2.55;1.45;;;8.20;99.90;;;;;;4948483;28;20117;-81
2023/11/05 07:38:03;;;;;;;4.75;2.92;;;8.30;99.90;;;;;;4941145;28;20022;-81
2023/11/05 07:40:28;;;;;;;4.70;2.28;;;8.30;99.90;;;;;;4952513;28;20584;-82
2023/11/05 07:42:55;;;;;;;2.35;1.80;;;8.30;99.90;;;;;;4956250;28;20033;-82
2023/11/05 07:45:20;;;;;;;1.73;1.42;;;8.30;99.90;;;;;;4976001;28;20029;-82
2023/11/05 07:47:46;;;;;;;3.35;1.60;;;8.30;99.90;;;;;;4955210;28;20034;-81
2023/11/05 07:50:12;;;;;;;2.63;1.60;;;8.30;99.90;;;;;;4943568;28;20029;-81
2023/11/05 07:52:41;;;;;;;5.45;3.13;;;8.30;99.90;;;;;;4938671;28;20041;-82
2023/11/05 07:55:07;;;;;;;4.90;2.85;;;8.30;99.90;;;;;;4956248;28;20029;-82
2023/11/05 07:57:33;;;;;;;6.22;4.03;;;8.40;99.90;;;;;;4952107;28;20025;-82
2023/11/05 08:00:00;;;;;;;7.95;4.40;;;8.40;99.90;;;;;;4984584;28;20025;-82
2023/11/05 08:02:26;;;;;;;12.82;6.20;;;8.40;99.90;;;;;;4970847;28;20344;-83
2023/11/05 08:04:51;;;;;;;5.47;2.90;;;8.40;99.90;;;;;;4966292;28;20104;-84
2023/11/05 08:07:17;;;;;;;2.08;1.73;;;8.40;99.90;;;;;;4953007;28;20039;-83
2023/11/05 08:09:42;;;;;;;4.60;1.63;;;8.50;99.90;;;;;;4955461;28;20061;-83
2023/11/05 08:12:08;;;;;;;5.03;2.28;;;8.50;99.90;;;;;;4988220;28;20112;-83
2023/11/05 08:14:34;;;;;;;3.17;2.38;;;8.50;99.90;;;;;;4918885;28;20117;-82
2023/11/05 08:16:59;;;;;;;3.90;1.23;;;8.50;99.90;;;;;;4947994;23;20367;-58
2023/11/05 08:19:25;;;;;;;1.77;1.33;;;8.60;99.90;;;;;;4908543;28;20446;-59
2023/11/05 08:21:50;;;;;;;1.90;1.23;;;8.60;99.90;;;;;;4911127;28;21324;-58
2023/11/05 08:24:16;;;;;;;1.88;1.10;;;8.60;99.90;;;;;;4965353;28;20141;-60
2023/11/05 08:26:44;;;;;;;2.58;1.40;;;8.70;99.90;;;;;;4897314;28;20061;-59
2023/11/05 08:29:09;;;;;;;1.55;1.00;;;8.80;99.90;;;;;;4898844;28;20042;-58
2023/11/05 08:31:35;;;;;;;1.50;1.00;;;8.80;99.90;;;;;;4917092;28;20026;-60
2023/11/05 08:34:00;;;;;;;5.78;2.92;;;8.90;99.90;;;;;;4925609;28;20420;-59
2023/11/05 08:36:26;;;;;;;3.83;2.03;;;8.90;99.90;;;;;;4905868;28;20041;-62
2023/11/05 08:38:52;;;;;;;1.60;1.17;;;8.90;99.90;;;;;;4897728;28;20597;-57
2023/11/05 08:41:17;;;;;;;2.28;0.93;;;9.00;99.90;;;;;;4898175;28;20518;-55
2023/11/05 08:43:43;;;;;;;4.95;0.93;;;9.00;99.90;;;;;;4917794;28;20053;-56
2023/11/05 08:46:09;;;;;;;3.47;1.30;;;9.10;99.90;;;;;;4910592;28;20050;-62
2023/11/05 08:48:35;;;;;;;4.10;0.93;;;9.10;99.90;;;;;;4909242;28;20026;-63
2023/11/05 08:51:01;;;;;;;3.08;1.05;;;9.10;99.90;;;;;;4936493;28;20088;-58
2023/11/05 08:53:26;;;;;;;1.67;1.08;;;9.10;99.90;;;;;;4895774;28;20089;-60
2023/11/05 08:55:52;;;;;;;2.85;1.20;;;9.20;99.90;;;;;;4893739;28;20039;-57
2023/11/05 08:58:18;;;;;;;2.70;1.08;;;9.20;99.90;;;;;;4903622;28;20113;-60
2023/11/05 09:00:43;;;;;;;2.50;0.98;;;9.20;99.90;;;;;;4893001;28;20574;-57
2023/11/05 09:03:12;;;;;;;5.93;1.27;;;9.20;99.90;;;;;;4935972;28;20034;-60
2023/11/05 09:05:38;;;;;;;3.58;1.27;;;9.20;99.90;;;;;;4885823;28;20372;-58
2023/11/05 09:08:03;;;;;;;1.58;1.27;;;9.20;99.90;;;;;;4895787;28;20034;-58
2023/11/05 09:10:30;;;;;;;1.20;1.10;;;9.20;99.90;;;;;;4921218;28;20033;-58
2023/11/05 09:12:59;;;;;;;1.55;1.27;;;9.20;99.90;;;;;;4913050;28;21444;-57
2023/11/05 09:15:26;;;;;;;2.05;1.02;;;9.30;99.90;;;;;;4941541;28;20038;-60
2023/11/05 09:17:51;;;;;;;2.40;0.93;;;9.30;99.90;;;;;;4860379;28;20086;-60
2023/11/05 09:20:17;;;;;;;2.40;1.25;;;9.30;99.90;;;;;;4908457;28;20306;-60
2023/11/05 09:22:43;;;;;;;0.77;0.75;;;9.40;99.90;;;;;;4888175;28;21947;-59
2023/11/05 09:25:09;;;;;;;2.72;1.23;;;9.40;99.90;;;;;;4907210;28;20097;-59
2023/11/05 09:27:36;;;;;;;2.25;1.25;;;9.40;99.90;;;;;;4899804;28;20081;-64
2023/11/05 09:30:03;;;;;;;1.67;1.08;;;9.50;99.90;;;;;;4926916;28;20033;-60
2023/11/05 09:32:29;;;;;;;2.40;1.17;;;9.50;99.90;;;;;;4874350;28;21641;-58
2023/11/05 09:34:54;;;;;;;5.13;1.63;;;9.60;99.90;;;;;;4893379;28;20106;-59
2023/11/05 09:37:20;;;;;;;3.50;1.75;;;9.60;99.90;;;;;;4895612;28;20030;-63
2023/11/05 09:39:46;;;;;;;1.15;1.02;;;9.60;99.90;;;;;;4882402;28;21481;-59
2023/11/05 09:42:15;;;;;;;2.90;1.17;;;9.70;99.90;;;;;;4926815;28;20491;-58
2023/11/05 09:44:41;;;;;;;2.97;1.50;;;9.70;99.90;;;;;;4880596;28;20031;-55
2023/11/05 09:47:09;;;;;;;2.00;0.98;;;9.80;99.90;;;;;;4865253;28;20030;-63
2023/11/05 09:49:37;;;;;;;3.47;1.05;;;9.80;99.90;;;;;;4898352;28;20049;-61
2023/11/05 09:52:03;;;;;;;2.67;1.10;;;9.80;99.90;;;;;;4890902;28;20554;-55
2023/11/05 09:54:29;;;;;;;1.65;1.30;;;9.80;99.90;;;;;;4933291;28;20026;-63
2023/11/05 09:56:55;;;;;;;1.02;0.93;;;9.90;99.90;;;;;;4881388;28;20526;-60
2023/11/05 09:59:22;;;;;;;2.83;1.20;;;9.90;99.90;;;;;;4930180;28;20124;-56
2023/11/05 10:01:54;;;;;;;4.13;0.85;;;10.00;99.90;;;;;;4931580;28;20743;-58
2023/11/05 10:04:21;;;;;;;4.28;1.10;;;10.00;99.90;;;;;;4947561;28;20493;-64
2023/11/05 10:06:50;;;;;;;1.70;0.80;;;10.10;99.90;;;;;;4923978;28;20085;-57
2023/11/05 10:09:16;;;;;;;1.13;0.93;;;10.10;99.90;;;;;;4922323;28;20611;-57
2023/11/05 10:11:45;;;;;;;3.30;1.20;;;10.10;99.90;;;;;;4928630;28;20027;-60
2023/11/05 10:14:14;;;;;;;3.00;1.20;;;10.10;99.90;;;;;;4925187;28;20022;-60
2023/11/05 10:16:39;;;;;;;3.08;1.20;;;10.20;99.90;;;;;;4923915;28;21272;-59
2023/11/05 10:19:05;;;;;;;0.88;0.77;;;10.10;99.90;;;;;;4946906;28;20027;-60
2023/11/05 10:21:40;;;;;;;3.13;1.35;;;10.20;99.90;;;;;;4899056;28;20407;-57
2023/11/05 10:24:09;;;;;;;1.42;1.00;;;10.20;99.90;;;;;;4920296;28;20495;-58
2023/11/05 10:26:35;;;;;;;0.90;0.70;;;10.20;99.90;;;;;;4919387;28;20394;-59
2023/11/05 10:29:02;;;;;;;1.80;0.80;;;10.20;99.90;;;;;;4911989;28;20037;-58
2023/11/05 10:31:28;;;;;;;1.65;0.85;;;10.20;99.90;;;;;;4933573;28;20308;-63
2023/11/05 10:33:56;;;;;;;2.60;1.25;;;10.20;99.90;;;;;;4962165;28;20122;-59
2023/11/05 10:36:23;;;;;;;1.23;0.70;;;10.30;99.90;;;;;;4911261;28;20113;-58
2023/11/05 10:38:49;;;;;;;3.28;0.80;;;10.30;99.90;;;;;;4907490;28;20026;-57
2023/11/05 10:41:19;;;;;;;1.20;0.85;;;10.30;99.90;;;;;;4891563;28;20053;-57
2023/11/05 10:43:49;;;;;;;1.80;0.63;;;10.40;99.90;;;;;;4917607;28;21225;-61
2023/11/05 10:46:21;;;;;;;0.70;0.70;;;10.40;99.90;;;;;;4957466;28;20318;-61
2023/11/05 10:48:51;;;;;;;1.70;0.88;;;10.50;99.90;;;;;;4905133;28;20042;-58
2023/11/05 10:51:21;;;;;;;2.55;1.20;;;10.60;99.90;;;;;;4902939;28;20086;-61
2023/11/05 10:53:48;;;;;;;1.00;0.90;;;10.60;99.90;;;;;;4912334;28;20049;-57
2023/11/05 10:56:33;;;;;;;2.00;1.08;;;10.60;99.90;;;;;;4881785;28;20407;-60
2023/11/05 10:59:02;;;;;;;1.10;1.00;;;10.60;99.90;;;;;;4921212;28;20030;-59
2023/11/05 11:01:32;;;;;;;1.75;1.10;;;10.70;99.90;;;;;;4928829;28;20027;-63
2023/11/05 11:04:10;;;;;;;2.17;1.05;;;10.70;99.90;;;;;;4938465;28;20080;-59
2023/11/05 11:06:40;;;;;;;3.45;1.33;;;10.70;99.90;;;;;;4894493;28;20078;-62
2023/11/05 11:09:22;;;;;;;1.75;1.23;;;10.70;99.90;;;;;;4909132;28;20023;-61
2023/11/05 11:11:48;;;;;;;1.27;1.17;;;10.80;99.90;;;;;;4903895;28;20038;-58
2023/11/05 11:14:15;;;;;;;2.80;1.23;;;10.70;99.90;;;;;;4905167;28;20062;-60
2023/11/05 11:16:42;;;;;;;1.73;1.13;;;10.80;99.90;;;;;;4904517;28;22492;-60
2023/11/05 11:19:17;;;;;;;2.03;1.25;;;10.80;99.90;;;;;;4951634;28;20106;-58
2023/11/05 11:21:55;;;;;;;1.42;0.90;;;10.80;99.90;;;;;;4907706;28;20034;-58
2023/11/05 11:24:38;;;;;;;1.10;1.00;;;10.80;99.90;;;;;;4898330;28;20030;-57
2023/11/05 11:27:05;;;;;;;1.45;1.10;;;10.80;99.90;;;;;;4903593;28;20542;-58
2023/11/05 11:29:32;;;;;;;1.83;0.82;;;10.80;99.90;;;;;;4902929;28;20103;-59
2023/11/05 11:31:57;;;;;;;2.50;0.90;;;10.80;99.90;;;;;;4899250;28;21819;-59
2023/11/05 11:34:25;;;;;;;2.47;1.05;;;10.90;99.90;;;;;;4945568;28;20082;-64
2023/11/05 11:37:03;;;;;;;1.25;1.10;;;10.90;99.90;;;;;;4913206;28;20082;-60
2023/11/05 11:39:29;;;;;;;2.47;0.90;;;10.90;99.90;;;;;;4901130;28;20034;-59
2023/11/05 11:41:55;;;;;;;2.25;1.10;;;11.00;99.90;;;;;;4886830;28;20038;-64
2023/11/05 11:44:21;;;;;;;0.95;0.82;;;11.00;99.90;;;;;;4887083;28;20027;-59
2023/11/05 11:46:50;;;;;;;0.77;0.77;;;11.00;99.90;;;;;;4932738;28;21655;-58
2023/11/05 11:49:16;;;;;;;1.80;1.08;;;10.90;99.90;;;;;;4965077;28;20023;-61
2023/11/05 11:51:42;;;;;;;0.75;0.75;;;10.90;99.90;;;;;;4918863;28;20041;-58
2023/11/05 11:54:10;;;;;;;0.98;0.90;;;10.90;99.90;;;;;;4919235;28;20121;-61
2023/11/05 11:56:40;;;;;;;1.45;1.05;;;10.80;99.90;;;;;;4908669;28;20403;-57
2023/11/05 11:59:07;;;;;;;2.13;1.63;;;10.80;99.90;;;;;;4927556;28;20137;-60
2023/11/05 12:01:34;;;;;;;2.05;1.60;;;10.80;99.90;;;;;;4928864;28;20110;-64
2023/11/05 12:04:00;;;;;;;2.25;2.08;;;10.70;99.90;;;;;;4953115;28;20023;-59
2023/11/05 12:06:27;;;;;;;1.65;1.55;;;10.70;99.90;;;;;;4906304;28;20055;-60
2023/11/05 12:08:54;;;;;;;1.50;1.40;;;10.80;99.90;;;;;;4904421;28;20045;-55
2023/11/05 12:11:21;;;;;;;1.42;1.15;;;10.80;99.90;;;;;;4920539;28;20666;-61
2023/11/05 12:13:48;;;;;;;1.50;1.10;;;10.80;99.90;;;;;;4922711;28;21463;-56
2023/11/05 12:16:16;;;;;;;1.45;1.30;;;10.90;99.90;;;;;;4935492;28;20129;-62
2023/11/05 12:18:44;;;;;;;1.45;1.35;;;10.90;99.90;;;;;;4911320;28;20069;-56
2023/11/05 12:21:13;;;;;;;2.75;1.77;;;10.90;99.90;;;;;;4892164;28;20039;-60
2023/11/05 12:23:43;;;;;;;2.80;2.08;;;10.90;99.90;;;;;;4903694;28;20031;-59
2023/11/05 12:26:10;;;;;;;3.58;1.63;;;10.90;99.90;;;;;;4890271;28;20057;-59
2023/11/05 12:28:36;;;;;;;1.85;1.75;;;10.90;99.90;;;;;;4873928;28;20029;-64
2023/11/05 12:31:04;;;;;;;1.73;1.63;;;10.90;99.90;;;;;;4939699;28;20027;-59
2023/11/05 12:33:34;;;;;;;1.42;1.33;;;10.90;99.90;;;;;;4891361;28;20027;-59
2023/11/05 12:35:59;;;;;;;1.58;1.45;;;10.90;99.90;;;;;;4895265;28;20105;-57
2023/11/05 12:38:25;;;;;;;1.50;1.40;;;10.80;99.90;;;;;;4892380;28;20035;-62
2023/11/05 12:40:52;;;;;;;2.97;1.30;;;10.80;99.90;;;;;;4914615;28;21400;-56
2023/11/05 12:43:18;;;;;;;2.10;1.50;;;10.90;99.90;;;;;;4933992;28;20049;-58
2023/11/05 12:45:44;;;;;;;1.30;1.20;;;10.80;99.90;;;;;;4887990;28;20018;-58
2023/11/05 12:48:09;;;;;;;1.92;1.67;;;10.80;99.90;;;;;;4882358;28;20031;-57
2023/11/05 12:50:35;;;;;;;4.05;1.80;;;10.90;99.90;;;;;;4886916;28;20101;-60
2023/11/05 12:53:01;;;;;;;3.13;1.70;;;10.90;99.90;;;;;;4903307;28;20050;-60